Rostein — LLHI — position and weather

sailwx.info

Track history (hours):
 
Tides and Currents Weather Stations Pressure Air Temp Water Temp Dewpoint Dewpoint Depression Visibility Wind Speed Wind Dir Waves Ship Positions

Rostein

Last reported at 2015-May-24 03:28 UTC. Time now 2015-May-27 23:54 UTC.
Position N 69°43' E 019°04'.

Length 57 m; draft 5 m.

Type: Cargo ship. MMSI: 257210000.

Date/timePositionNaut miles runAvg speedWind from/ knotsBaromVisibWave heightAir tempDewpointWater temp
2015-May-24 03:28N 69°43' E 019°04'4 4.0
2015-May-24 02:33N 69°40' E 018°58'0 0.0
2015-May-24 01:33N 69°40' E 018°58'3 3.1
2015-May-24 00:33N 69°37' E 018°55'143 9.3
2015-May-23 09:12N 67°51' E 014°28'7 9.8
2015-May-23 08:28N 67°46' E 014°14'9 9.8
2015-May-23 07:32N 67°38' E 014°01'7410.0
2015-May-23 00:10N 66°40' E 012°06'710.2
2015-May-22 23:32N 66°35' E 011°56'179 4.6
2015-May-21 08:33N 63°47' E 009°29'1111.4
2015-May-21 07:33N 63°54' E 009°50'1111.1
2015-May-21 06:33N 64°03' E 010°03'4710.8
2015-May-21 02:13N 64°44' E 010°57'811.8
2015-May-21 01:33N 64°50' E 011°10'1111.2
2015-May-21 00:33N 64°57' E 011°30'87 7.8
2015-May-20 13:27N 66°17' E 012°55'9 9.6
2015-May-20 12:33N 66°25' E 012°59'19 8.9
2015-May-20 10:24N 66°44' E 013°11'8 9.2
2015-May-20 09:33N 66°51' E 013°19'9 8.6
2015-May-20 08:33N 66°58' E 013°31'10 9.7
2015-May-20 07:33N 67°03' E 013°52'2 2.4
2015-May-20 06:33N 67°06' E 013°53'2 2.4
2015-May-20 05:33N 67°03' E 013°52'9 9.0
2015-May-20 04:33N 66°58' E 013°33'30 9.6
2015-May-20 01:25N 66°32' E 012°58'1010.6
2015-May-20 00:29N 66°22' E 012°58'1011.0
2015-May-19 23:33N 66°12' E 012°51'11 1.0
2015-May-19 12:33N 66°23' E 012°58'21 9.1
2015-May-19 10:12N 66°43' E 013°11'7 9.8
2015-May-19 09:32N 66°50' E 013°16'9 9.0
2015-May-19 08:33N 66°57' E 013°29'10 9.5
2015-May-19 07:33N 67°02' E 013°49'4 2.9
2015-May-19 06:16N 67°06' E 013°53'4 5.0
2015-May-19 05:33N 67°02' E 013°49'1310.3
2015-May-19 04:20N 66°54' E 013°26'2310.8
2015-May-19 02:10N 66°33' E 013°00'711.2
2015-May-19 01:32N 66°25' E 012°59'1711.9
2015-May-19 00:08N 66°09' E 012°49'811.2
2015-May-18 23:28N 66°03' E 012°39'16 1.8
2015-May-18 14:31N 66°17' E 012°55'30 9.4
2015-May-18 11:19N 66°47' E 013°14'8 9.3
2015-May-18 10:29N 66°53' E 013°24'8 8.4
2015-May-18 09:33N 66°59' E 013°36'9 8.9
2015-May-18 08:33N 67°05' E 013°53'0 0.4
2015-May-18 07:25N 67°06' E 013°53'3 2.9
2015-May-18 06:33N 67°03' E 013°52'9 8.6
2015-May-18 05:33N 66°58' E 013°34'30 9.3
2015-May-18 02:19N 66°32' E 012°58'810.3
2015-May-18 01:33N 66°24' E 012°59'12 9.9
2015-May-18 00:21N 66°12' E 012°52'1010.0
2015-May-17 23:19N 66°03' E 012°39'  
Track history (hours):
 
Tides and Currents Weather Stations Pressure Air Temp Water Temp Dewpoint Dewpoint Depression Visibility Wind Speed Wind Dir Waves Ship Positions

Rostein

Last reported at 2015-May-24 03:28 UTC. Time now 2015-May-27 23:54 UTC.
Position N 69°43' E 019°04'.

Length 57 m; draft 5 m.

Type: Cargo ship. MMSI: 257210000.

Date/timePositionNaut miles runAvg speedWind from/ knotsBaromVisibWave heightAir tempDewpointWater temp
2015-May-24 03:28N 69°43' E 019°04'4 4.0
2015-May-24 02:33N 69°40' E 018°58'0 0.0
2015-May-24 01:33N 69°40' E 018°58'3 3.1
2015-May-24 00:33N 69°37' E 018°55'143 9.3
2015-May-23 09:12N 67°51' E 014°28'7 9.8
2015-May-23 08:28N 67°46' E 014°14'9 9.8
2015-May-23 07:32N 67°38' E 014°01'7410.0
2015-May-23 00:10N 66°40' E 012°06'710.2
2015-May-22 23:32N 66°35' E 011°56'179 4.6
2015-May-21 08:33N 63°47' E 009°29'1111.4
2015-May-21 07:33N 63°54' E 009°50'1111.1
2015-May-21 06:33N 64°03' E 010°03'4710.8
2015-May-21 02:13N 64°44' E 010°57'811.8
2015-May-21 01:33N 64°50' E 011°10'1111.2
2015-May-21 00:33N 64°57' E 011°30'87 7.8
2015-May-20 13:27N 66°17' E 012°55'9 9.6
2015-May-20 12:33N 66°25' E 012°59'19 8.9
2015-May-20 10:24N 66°44' E 013°11'8 9.2
2015-May-20 09:33N 66°51' E 013°19'9 8.6
2015-May-20 08:33N 66°58' E 013°31'10 9.7
2015-May-20 07:33N 67°03' E 013°52'2 2.4
2015-May-20 06:33N 67°06' E 013°53'2 2.4
2015-May-20 05:33N 67°03' E 013°52'9 9.0
2015-May-20 04:33N 66°58' E 013°33'30 9.6
2015-May-20 01:25N 66°32' E 012°58'1010.6
2015-May-20 00:29N 66°22' E 012°58'1011.0
2015-May-19 23:33N 66°12' E 012°51'11 1.0
2015-May-19 12:33N 66°23' E 012°58'21 9.1
2015-May-19 10:12N 66°43' E 013°11'7 9.8
2015-May-19 09:32N 66°50' E 013°16'9 9.0
2015-May-19 08:33N 66°57' E 013°29'10 9.5
2015-May-19 07:33N 67°02' E 013°49'4 2.9
2015-May-19 06:16N 67°06' E 013°53'4 5.0
2015-May-19 05:33N 67°02' E 013°49'1310.3
2015-May-19 04:20N 66°54' E 013°26'2310.8
2015-May-19 02:10N 66°33' E 013°00'711.2
2015-May-19 01:32N 66°25' E 012°59'1711.9
2015-May-19 00:08N 66°09' E 012°49'811.2
2015-May-18 23:28N 66°03' E 012°39'16 1.8
2015-May-18 14:31N 66°17' E 012°55'30 9.4
2015-May-18 11:19N 66°47' E 013°14'8 9.3
2015-May-18 10:29N 66°53' E 013°24'8 8.4
2015-May-18 09:33N 66°59' E 013°36'9 8.9
2015-May-18 08:33N 67°05' E 013°53'0 0.4
2015-May-18 07:25N 67°06' E 013°53'3 2.9
2015-May-18 06:33N 67°03' E 013°52'9 8.6
2015-May-18 05:33N 66°58' E 013°34'30 9.3
2015-May-18 02:19N 66°32' E 012°58'810.3
2015-May-18 01:33N 66°24' E 012°59'12 9.9
2015-May-18 00:21N 66°12' E 012°52'1010.0
2015-May-17 23:19N 66°03' E 012°39'  

Dump ship's entire track history